Time;durP1;ratioP1;P1;durP2;ratioP2;P2;SDS_P1;SDS_P2;PMS_P1;PMS_P2;Temp;Humidity;BMP_temperature;BMP_pressure;BME280_temperature;BME280_humidity;BME280_pressure;Samples;Min_cycle;Max_cycle;Signal;HPM_P1;HPM_P2
2021/05/21 00:01:35;;;;;;;13.27;8.02;;;;;;;;;;5042540;28;20045;-60
2021/05/21 00:04:01;;;;;;;11.98;8.77;;;;;;;;;;5052034;28;20052;-60
2021/05/21 00:06:28;;;;;;;18.35;8.55;;;;;;;;;;5052061;28;20070;-60
2021/05/21 00:08:55;;;;;;;12.15;7.90;;;;;;;;;;5052302;28;20095;-59
2021/05/21 00:11:21;;;;;;;13.38;8.50;;;;;;;;;;5051958;28;20103;-60
2021/05/21 00:13:47;;;;;;;13.32;8.32;;;;;;;;;;5051278;28;20052;-60
2021/05/21 00:16:14;;;;;;;15.00;8.85;;;;;;;;;;5051580;28;20526;-61
2021/05/21 00:18:40;;;;;;;15.02;8.73;;;;;;;;;;5034934;28;20053;-60
2021/05/21 00:21:08;;;;;;;11.55;8.30;;;;;;;;;;5036917;28;20050;-60
2021/05/21 00:23:35;;;;;;;14.35;8.65;;;;;;;;;;5050038;28;20061;-60
2021/05/21 00:26:01;;;;;;;15.88;9.50;;;;;;;;;;5051434;28;20048;-60
2021/05/21 00:28:27;;;;;;;12.07;8.15;;;;;;;;;;5051446;28;20495;-60
2021/05/21 00:30:53;;;;;;;12.32;8.77;;;;;;;;;;5051505;28;20084;-60
2021/05/21 00:33:20;;;;;;;16.15;8.65;;;;;;;;;;5052501;28;20079;-60
2021/05/21 00:35:46;;;;;;;15.82;8.95;;;;;;;;;;5040180;28;20045;-60
2021/05/21 00:38:12;;;;;;;13.00;7.75;;;;;;;;;;5040378;28;20052;-60
2021/05/21 00:40:39;;;;;;;14.75;9.13;;;;;;;;;;5042085;28;20087;-60
2021/05/21 00:43:05;;;;;;;16.83;9.52;;;;;;;;;;5051465;28;20041;-60
2021/05/21 00:45:31;;;;;;;15.40;9.63;;;;;;;;;;5051734;28;20056;-60
2021/05/21 00:47:58;;;;;;;15.68;8.38;;;;;;;;;;5052374;28;20402;-60
2021/05/21 00:50:24;;;;;;;17.80;8.65;;;;;;;;;;5051762;28;20072;-60
2021/05/21 00:52:51;;;;;;;17.30;8.80;;;;;;;;;;5051667;28;20045;-60
2021/05/21 00:55:17;;;;;;;13.52;8.52;;;;;;;;;;5051761;28;20048;-60
2021/05/21 00:57:44;;;;;;;13.90;9.13;;;;;;;;;;5051351;28;20098;-60
2021/05/21 01:00:11;;;;;;;17.02;8.50;;;;;;;;;;5052614;28;20041;-60
2021/05/21 01:02:37;;;;;;;15.75;9.95;;;;;;;;;;5046922;28;20052;-60
2021/05/21 01:05:04;;;;;;;13.02;8.38;;;;;;;;;;5045904;28;20045;-60
2021/05/21 01:07:31;;;;;;;12.75;9.05;;;;;;;;;;5040024;28;20045;-60
2021/05/21 01:09:57;;;;;;;17.15;9.27;;;;;;;;;;5051799;28;20044;-60
2021/05/21 01:12:23;;;;;;;15.35;9.65;;;;;;;;;;5051362;28;20106;-59
2021/05/21 01:14:51;;;;;;;15.57;9.68;;;;;;;;;;5052036;28;20094;-60
2021/05/21 01:17:17;;;;;;;18.48;10.68;;;;;;;;;;5042863;28;20056;-60
2021/05/21 01:19:44;;;;;;;17.58;10.43;;;;;;;;;;5040044;28;20516;-60
2021/05/21 01:22:11;;;;;;;12.63;8.43;;;;;;;;;;5038483;28;20052;-60
2021/05/21 01:24:37;;;;;;;18.35;9.70;;;;;;;;;;5051369;28;20045;-61
2021/05/21 01:27:05;;;;;;;14.27;8.77;;;;;;;;;;5051882;28;20045;-60
2021/05/21 01:29:31;;;;;;;17.33;10.52;;;;;;;;;;5051267;28;20056;-60
2021/05/21 01:31:58;;;;;;;16.33;10.02;;;;;;;;;;5051571;28;20487;-60
2021/05/21 01:34:24;;;;;;;18.95;10.90;;;;;;;;;;5055249;28;20045;-60
2021/05/21 01:36:51;;;;;;;16.67;10.70;;;;;;;;;;5055229;28;20044;-60
2021/05/21 01:39:17;;;;;;;17.20;10.88;;;;;;;;;;5051877;28;20049;-60
2021/05/21 01:41:44;;;;;;;31.55;11.43;;;;;;;;;;5054807;28;20132;-60
2021/05/21 01:44:11;;;;;;;21.75;11.15;;;;;;;;;;5055163;28;20131;-60
2021/05/21 01:46:38;;;;;;;18.38;11.52;;;;;;;;;;5054006;28;20051;-60
2021/05/21 01:49:05;;;;;;;17.45;10.27;;;;;;;;;;5055190;28;20044;-60
2021/05/21 01:51:32;;;;;;;15.07;9.75;;;;;;;;;;5055033;28;20052;-60
2021/05/21 01:54:14;;;;;;;19.60;11.23;;;;;;;;;;5055559;28;20041;-60
2021/05/21 01:56:41;;;;;;;16.95;10.63;;;;;;;;;;5045832;28;20049;-60
2021/05/21 01:59:07;;;;;;;18.55;10.80;;;;;;;;;;5049435;28;20045;-60
2021/05/21 02:01:33;;;;;;;17.90;10.27;;;;;;;;;;5054645;28;20503;-60
2021/05/21 02:04:00;;;;;;;19.00;10.13;;;;;;;;;;5053529;28;20069;-60
2021/05/21 02:06:27;;;;;;;16.70;10.20;;;;;;;;;;5038892;28;20500;-60
2021/05/21 02:08:53;;;;;;;15.93;10.48;;;;;;;;;;5054189;28;20103;-60
2021/05/21 02:11:20;;;;;;;16.65;10.13;;;;;;;;;;5054690;28;20450;-60
2021/05/21 02:13:46;;;;;;;19.17;10.70;;;;;;;;;;5054282;28;20053;-60
2021/05/21 02:16:13;;;;;;;17.40;10.18;;;;;;;;;;5054534;28;20079;-60
2021/05/21 02:18:40;;;;;;;17.38;9.55;;;;;;;;;;5054440;28;20080;-60
2021/05/21 02:21:06;;;;;;;15.70;9.40;;;;;;;;;;5055312;28;20087;-60
2021/05/21 02:23:33;;;;;;;15.07;9.60;;;;;;;;;;5054070;28;20052;-60
2021/05/21 02:25:59;;;;;;;17.65;10.55;;;;;;;;;;5054445;28;20041;-60
2021/05/21 02:28:26;;;;;;;20.40;11.00;;;;;;;;;;5054333;28;20411;-60
2021/05/21 02:30:52;;;;;;;20.92;10.77;;;;;;;;;;5054149;28;20041;-59
2021/05/21 02:33:19;;;;;;;15.70;9.90;;;;;;;;;;5055270;28;20056;-60
2021/05/21 02:35:45;;;;;;;14.80;9.85;;;;;;;;;;5042903;28;20045;-60
2021/05/21 02:38:11;;;;;;;20.10;11.02;;;;;;;;;;5049123;28;20094;-59
2021/05/21 02:40:38;;;;;;;18.55;11.40;;;;;;;;;;5053881;28;20068;-60
2021/05/21 02:43:04;;;;;;;18.92;10.30;;;;;;;;;;5053980;28;20049;-60
2021/05/21 02:45:30;;;;;;;20.77;10.70;;;;;;;;;;5054108;28;20048;-60
2021/05/21 02:47:57;;;;;;;19.67;11.63;;;;;;;;;;5054459;28;20052;-60
2021/05/21 02:50:23;;;;;;;20.23;10.43;;;;;;;;;;5053728;28;20045;-60
2021/05/21 02:52:49;;;;;;;16.88;11.18;;;;;;;;;;5053684;28;20041;-60
2021/05/21 02:55:16;;;;;;;20.98;10.65;;;;;;;;;;5053817;28;20490;-60
2021/05/21 02:57:42;;;;;;;16.23;10.35;;;;;;;;;;5053583;28;20057;-60
2021/05/21 03:00:09;;;;;;;18.02;10.30;;;;;;;;;;5054652;28;20051;-60
2021/05/21 03:02:35;;;;;;;17.55;11.00;;;;;;;;;;5053668;28;20041;-60
2021/05/21 03:05:02;;;;;;;23.75;11.20;;;;;;;;;;5053546;28;20048;-60
2021/05/21 03:07:28;;;;;;;20.30;12.52;;;;;;;;;;5053121;28;20120;-60
2021/05/21 03:09:54;;;;;;;21.42;13.18;;;;;;;;;;5053695;28;20045;-60
2021/05/21 03:12:20;;;;;;;20.23;12.40;;;;;;;;;;5054221;28;20071;-60
2021/05/21 03:14:47;;;;;;;18.40;11.85;;;;;;;;;;5041659;28;20072;-60
2021/05/21 03:17:13;;;;;;;17.20;10.73;;;;;;;;;;5048678;28;20068;-60
2021/05/21 03:19:39;;;;;;;20.38;12.07;;;;;;;;;;5045360;28;20525;-60
2021/05/21 03:22:06;;;;;;;22.42;12.85;;;;;;;;;;5039341;28;20423;-60
2021/05/21 03:24:32;;;;;;;20.67;11.90;;;;;;;;;;5036758;28;20053;-60
2021/05/21 03:26:59;;;;;;;20.45;12.10;;;;;;;;;;5052031;28;20045;-60
2021/05/21 03:29:25;;;;;;;20.83;12.45;;;;;;;;;;5052820;28;20053;-59
2021/05/21 03:31:52;;;;;;;19.58;12.63;;;;;;;;;;5047518;28;20120;-60
2021/05/21 03:34:18;;;;;;;19.70;12.40;;;;;;;;;;5040602;28;20459;-60
2021/05/21 03:36:44;;;;;;;19.77;11.75;;;;;;;;;;5052680;28;20102;-60
2021/05/21 03:39:11;;;;;;;20.88;11.82;;;;;;;;;;5037653;28;20423;-59
2021/05/21 03:41:37;;;;;;;20.02;12.27;;;;;;;;;;5051798;28;20045;-60
2021/05/21 03:44:05;;;;;;;18.45;12.20;;;;;;;;;;5052776;28;20041;-60
2021/05/21 03:46:32;;;;;;;20.95;12.75;;;;;;;;;;5052783;28;20087;-60
2021/05/21 03:49:01;;;;;;;22.42;12.55;;;;;;;;;;5051552;28;20036;-60
2021/05/21 03:51:27;;;;;;;18.30;11.68;;;;;;;;;;5052880;28;20060;-60
2021/05/21 03:53:55;;;;;;;21.60;12.70;;;;;;;;;;5052369;28;20052;-60
2021/05/21 03:56:21;;;;;;;27.27;11.23;;;;;;;;;;5052005;28;20120;-60
2021/05/21 03:58:48;;;;;;;17.30;11.45;;;;;;;;;;5052487;28;20044;-60
2021/05/21 04:01:14;;;;;;;23.30;11.18;;;;;;;;;;5049936;28;20052;-60
2021/05/21 04:03:40;;;;;;;14.27;10.68;;;;;;;;;;5048633;28;20047;-60
2021/05/21 04:06:07;;;;;;;17.83;11.45;;;;;;;;;;5038925;28;20049;-60
2021/05/21 04:08:34;;;;;;;17.02;10.20;;;;;;;;;;5050578;28;20518;-60
2021/05/21 04:11:01;;;;;;;16.05;9.57;;;;;;;;;;5052438;28;20041;-60
2021/05/21 04:13:27;;;;;;;15.65;9.93;;;;;;;;;;5052112;28;20060;-60
2021/05/21 04:15:53;;;;;;;13.20;9.35;;;;;;;;;;5050850;28;20068;-59
2021/05/21 04:18:20;;;;;;;17.33;10.07;;;;;;;;;;5044554;28;20060;-60
2021/05/21 04:20:46;;;;;;;14.40;9.25;;;;;;;;;;5046718;28;21176;-60
2021/05/21 04:23:12;;;;;;;12.82;8.63;;;;;;;;;;5044362;28;20049;-60
2021/05/21 04:25:39;;;;;;;16.10;9.13;;;;;;;;;;5040688;28;20076;-61
2021/05/21 04:28:05;;;;;;;17.38;9.70;;;;;;;;;;5038288;28;20047;-60
2021/05/21 04:30:32;;;;;;;11.98;7.25;;;;;;;;;;5045756;28;20075;-60
2021/05/21 04:32:58;;;;;;;14.50;9.50;;;;;;;;;;5048937;28;20124;-59
2021/05/21 04:35:24;;;;;;;11.95;8.15;;;;;;;;;;5037728;28;20046;-60
2021/05/21 04:37:51;;;;;;;14.35;8.65;;;;;;;;;;5033728;28;20093;-60
2021/05/21 04:40:17;;;;;;;12.38;7.57;;;;;;;;;;5044770;28;20045;-60
2021/05/21 04:42:44;;;;;;;13.70;8.55;;;;;;;;;;5046903;28;20203;-60
2021/05/21 04:45:11;;;;;;;16.15;9.05;;;;;;;;;;5043992;28;20054;-60
2021/05/21 04:47:37;;;;;;;13.90;8.25;;;;;;;;;;5046550;28;20069;-59
2021/05/21 04:50:03;;;;;;;15.23;8.52;;;;;;;;;;5042882;28;20064;-60
2021/05/21 04:52:30;;;;;;;12.75;6.63;;;;;;;;;;5046643;28;20083;-60
2021/05/21 04:54:56;;;;;;;14.40;8.32;;;;;;;;;;5046935;28;20069;-60
2021/05/21 04:57:22;;;;;;;14.48;8.98;;;;;;;;;;5051869;28;20099;-60
2021/05/21 04:59:49;;;;;;;11.82;7.90;;;;;;;;;;5048590;28;20049;-61
2021/05/21 05:02:15;;;;;;;12.05;7.85;;;;;;;;;;5046168;28;20049;-61
2021/05/21 05:04:41;;;;;;;16.02;8.10;;;;;;;;;;5043580;28;20462;-60
2021/05/21 05:07:08;;;;;;;11.23;7.13;;;;;;;;;;5033203;28;20519;-60
2021/05/21 05:09:34;;;;;;;11.38;8.15;;;;;;;;;;5052420;28;20052;-61
2021/05/21 05:12:00;;;;;;;13.13;7.35;;;;;;;;;;5054037;28;20037;-60
2021/05/21 05:14:27;;;;;;;11.95;7.65;;;;;;;;;;5030268;28;20463;-61
2021/05/21 05:16:54;;;;;;;10.85;7.35;;;;;;;;;;5028986;28;20050;-60
2021/05/21 05:19:20;;;;;;;11.43;7.28;;;;;;;;;;5028680;28;20050;-61
2021/05/21 05:21:47;;;;;;;13.07;7.57;;;;;;;;;;5031443;28;20042;-60
2021/05/21 05:24:20;;;;;;;10.98;6.38;;;;;;;;;;5031585;28;20053;-60
2021/05/21 05:26:47;;;;;;;10.57;6.50;;;;;;;;;;5025048;28;20053;-61
2021/05/21 05:29:14;;;;;;;11.68;6.20;;;;;;;;;;5027256;28;20049;-61
2021/05/21 05:31:42;;;;;;;9.13;6.35;;;;;;;;;;5027049;28;20053;-61
2021/05/21 05:34:09;;;;;;;9.40;5.70;;;;;;;;;;5018405;28;20045;-61
2021/05/21 05:36:35;;;;;;;8.32;5.47;;;;;;;;;;5025001;28;20503;-61
2021/05/21 05:39:01;;;;;;;9.57;5.13;;;;;;;;;;5027827;28;20041;-61
2021/05/21 05:41:27;;;;;;;10.18;5.95;;;;;;;;;;5031819;28;20038;-61
2021/05/21 05:43:54;;;;;;;9.80;5.60;;;;;;;;;;5032625;28;20076;-61
2021/05/21 05:46:20;;;;;;;8.90;5.70;;;;;;;;;;5030708;28;20063;-61
2021/05/21 05:48:47;;;;;;;9.02;5.40;;;;;;;;;;5029491;28;20075;-61
2021/05/21 05:51:13;;;;;;;9.02;6.25;;;;;;;;;;5026252;28;20108;-61
2021/05/21 05:53:41;;;;;;;11.35;5.65;;;;;;;;;;5027469;28;20051;-61
2021/05/21 05:56:07;;;;;;;8.48;5.97;;;;;;;;;;5026162;28;20049;-61
2021/05/21 05:58:34;;;;;;;14.20;5.53;;;;;;;;;;5016565;28;20041;-61
2021/05/21 06:01:00;;;;;;;7.38;4.90;;;;;;;;;;5018781;28;20070;-61
2021/05/21 06:03:29;;;;;;;17.50;6.60;;;;;;;;;;5031139;28;20046;-60
2021/05/21 06:05:56;;;;;;;16.65;4.93;;;;;;;;;;5032869;28;20056;-61
2021/05/21 06:08:22;;;;;;;9.18;4.35;;;;;;;;;;5029623;28;20053;-61
2021/05/21 06:10:50;;;;;;;10.55;5.97;;;;;;;;;;5031117;28;20045;-61
2021/05/21 06:13:17;;;;;;;6.20;4.60;;;;;;;;;;5036860;28;20075;-61
2021/05/21 06:15:43;;;;;;;8.50;4.65;;;;;;;;;;5051281;28;20131;-60
2021/05/21 06:18:09;;;;;;;9.25;5.22;;;;;;;;;;5054057;28;20481;-61
2021/05/21 06:20:36;;;;;;;8.23;4.43;;;;;;;;;;5050245;28;20454;-61
2021/05/21 06:23:03;;;;;;;8.77;4.60;;;;;;;;;;5050508;28;20128;-61
2021/05/21 06:25:53;;;;;;;5.50;4.07;;;;;;;;;;5049931;28;20041;-61
2021/05/21 06:28:24;;;;;;;6.75;4.00;;;;;;;;;;5040434;28;20380;-61
2021/05/21 06:30:53;;;;;;;5.25;3.70;;;;;;;;;;5035847;28;20040;-60
2021/05/21 06:33:20;;;;;;;5.38;3.80;;;;;;;;;;5049355;28;20080;-61
2021/05/21 06:35:48;;;;;;;7.38;4.65;;;;;;;;;;5040293;28;20553;-61
2021/05/21 06:38:15;;;;;;;8.23;3.38;;;;;;;;;;5040134;28;20125;-60
2021/05/21 06:40:41;;;;;;;7.07;3.38;;;;;;;;;;5040381;28;20045;-61
2021/05/21 06:43:08;;;;;;;5.85;4.07;;;;;;;;;;5037685;28;20048;-61
2021/05/21 06:45:35;;;;;;;4.85;3.30;;;;;;;;;;5036111;28;20103;-61
2021/05/21 06:48:01;;;;;;;5.22;2.97;;;;;;;;;;5038038;28;20049;-61
2021/05/21 06:50:27;;;;;;;4.55;2.70;;;;;;;;;;5040226;28;20042;-61
2021/05/21 06:52:54;;;;;;;5.75;3.15;;;;;;;;;;5044986;28;20044;-61
2021/05/21 06:55:20;;;;;;;5.30;2.88;;;;;;;;;;5045868;28;20141;-61
2021/05/21 06:57:46;;;;;;;5.15;2.92;;;;;;;;;;5048921;28;20049;-61
2021/05/21 07:00:13;;;;;;;8.63;4.60;;;;;;;;;;5052861;28;20076;-61
2021/05/21 07:02:40;;;;;;;3.95;2.60;;;;;;;;;;5044552;28;20110;-60
2021/05/21 07:05:06;;;;;;;3.85;2.60;;;;;;;;;;5052570;28;20052;-61
2021/05/21 07:07:33;;;;;;;6.65;2.65;;;;;;;;;;5050488;28;20103;-61
2021/05/21 07:10:00;;;;;;;4.63;2.80;;;;;;;;;;5068487;28;20059;-61
2021/05/21 07:12:26;;;;;;;3.42;2.13;;;;;;;;;;5046324;28;20948;-61
2021/05/21 07:14:53;;;;;;;5.93;2.35;;;;;;;;;;5048343;28;20462;-61
2021/05/21 07:17:19;;;;;;;4.63;2.38;;;;;;;;;;5047150;28;20088;-61
2021/05/21 07:19:46;;;;;;;4.70;2.60;;;;;;;;;;5047663;28;20045;-61
2021/05/21 07:22:12;;;;;;;3.20;2.22;;;;;;;;;;5050555;28;20048;-61
2021/05/21 07:24:39;;;;;;;11.32;2.10;;;;;;;;;;5034569;28;20459;-61
2021/05/21 07:27:06;;;;;;;4.65;2.22;;;;;;;;;;5039495;28;20415;-61
2021/05/21 07:29:32;;;;;;;5.90;2.50;;;;;;;;;;5038973;28;20056;-61
2021/05/21 07:31:58;;;;;;;3.20;2.17;;;;;;;;;;5041890;28;20052;-61
2021/05/21 07:34:25;;;;;;;3.05;2.00;;;;;;;;;;5052265;28;20040;-61
2021/05/21 07:36:51;;;;;;;2.50;1.90;;;;;;;;;;5043775;28;20041;-61
2021/05/21 07:39:18;;;;;;;5.45;1.95;;;;;;;;;;5053372;28;20091;-61
2021/05/21 07:41:44;;;;;;;3.40;1.83;;;;;;;;;;5051883;28;20109;-61
2021/05/21 07:44:11;;;;;;;2.63;1.80;;;;;;;;;;5051893;28;20052;-61
2021/05/21 07:46:38;;;;;;;2.25;1.45;;;;;;;;;;5050570;28;20045;-61
2021/05/21 07:49:04;;;;;;;2.88;1.75;;;;;;;;;;5037772;28;20041;-61
2021/05/21 07:51:34;;;;;;;7.90;1.80;;;;;;;;;;5051153;28;20048;-61
2021/05/21 07:54:00;;;;;;;2.03;1.25;;;;;;;;;;5040180;28;20099;-61
2021/05/21 07:56:27;;;;;;;2.33;1.30;;;;;;;;;;5051805;28;20056;-61
2021/05/21 07:58:53;;;;;;;3.80;1.90;;;;;;;;;;5051144;28;20037;-60
2021/05/21 08:01:20;;;;;;;5.07;1.75;;;;;;;;;;5051670;28;20065;-61
2021/05/21 08:03:48;;;;;;;2.58;1.38;;;;;;;;;;5051921;28;20075;-61
2021/05/21 08:06:14;;;;;;;3.70;1.45;;;;;;;;;;5052895;28;20127;-61
2021/05/21 08:08:41;;;;;;;3.15;1.42;;;;;;;;;;5051413;28;20057;-60
2021/05/21 08:11:07;;;;;;;7.22;1.60;;;;;;;;;;5051701;28;20044;-61
2021/05/21 08:13:34;;;;;;;2.70;1.40;;;;;;;;;;5051083;28;20053;-61
2021/05/21 08:16:03;;;;;;;8.55;1.70;;;;;;;;;;5051823;28;20114;-61
2021/05/21 08:18:30;;;;;;;2.30;1.50;;;;;;;;;;5051340;28;20088;-61
2021/05/21 08:20:56;;;;;;;7.65;4.10;;;;;;;;;;5052060;28;20102;-61
2021/05/21 08:23:22;;;;;;;3.30;1.25;;;;;;;;;;5043480;28;20507;-61
2021/05/21 08:25:49;;;;;;;2.40;1.45;;;;;;;;;;5040058;28;20507;-60
2021/05/21 08:28:15;;;;;;;2.13;1.20;;;;;;;;;;5038502;28;20041;-61
2021/05/21 08:30:41;;;;;;;1.42;1.10;;;;;;;;;;5051164;28;20052;-61
2021/05/21 08:33:09;;;;;;;2.33;1.48;;;;;;;;;;5051739;28;20403;-60
2021/05/21 08:35:35;;;;;;;5.00;1.60;;;;;;;;;;5041655;28;20092;-61
2021/05/21 08:38:02;;;;;;;3.03;1.20;;;;;;;;;;5044934;28;20486;-61
2021/05/21 08:40:35;;;;;;;2.70;1.23;;;;;;;;;;5050990;28;20032;-61
2021/05/21 08:43:05;;;;;;;2.90;1.23;;;;;;;;;;5051168;28;20106;-61
2021/05/21 08:45:31;;;;;;;2.30;1.20;;;;;;;;;;5051281;28;20045;-61
2021/05/21 08:47:58;;;;;;;3.47;1.30;;;;;;;;;;5051969;28;20048;-61
2021/05/21 08:50:25;;;;;;;3.78;1.48;;;;;;;;;;5041550;28;20076;-61
2021/05/21 08:52:52;;;;;;;3.33;1.17;;;;;;;;;;5043353;28;20442;-60
2021/05/21 08:55:19;;;;;;;4.72;2.10;;;;;;;;;;5050986;28;20082;-61
2021/05/21 08:57:45;;;;;;;2.30;1.10;;;;;;;;;;5050563;28;20080;-61
2021/05/21 09:00:12;;;;;;;2.50;1.38;;;;;;;;;;5051231;28;20045;-61
2021/05/21 09:02:39;;;;;;;2.55;1.30;;;;;;;;;;5050839;28;20120;-61
2021/05/21 09:05:10;;;;;;;1.60;1.30;;;;;;;;;;5045536;28;20053;-61
2021/05/21 09:07:40;;;;;;;2.10;1.15;;;;;;;;;;5041142;28;20087;-61
2021/05/21 09:10:17;;;;;;;2.40;1.33;;;;;;;;;;5050943;28;20045;-61
2021/05/21 09:12:44;;;;;;;1.92;1.15;;;;;;;;;;5050773;28;20060;-61
2021/05/21 09:15:13;;;;;;;3.33;1.13;;;;;;;;;;5051775;28;20084;-61
2021/05/21 09:17:59;;;;;;;2.25;1.58;;;;;;;;;;5052919;28;20045;-61
2021/05/21 09:20:29;;;;;;;2.67;1.35;;;;;;;;;;5071549;28;20118;-61
2021/05/21 09:22:59;;;;;;;2.30;1.20;;;;;;;;;;5055396;28;20049;-61
2021/05/21 09:25:49;;;;;;;1.90;1.20;;;;;;;;;;5056196;28;20045;-61
2021/05/21 09:28:33;;;;;;;3.45;1.63;;;;;;;;;;5053886;28;20092;-61
2021/05/21 09:31:09;;;;;;;3.22;1.45;;;;;;;;;;5057723;28;20574;-61
2021/05/21 09:33:36;;;;;;;2.63;1.40;;;;;;;;;;5056008;28;20091;-61
2021/05/21 09:36:04;;;;;;;2.78;1.60;;;;;;;;;;5057349;28;20048;-60
2021/05/21 09:38:50;;;;;;;3.75;1.55;;;;;;;;;;5072789;28;20124;-61
2021/05/21 09:41:16;;;;;;;3.50;1.52;;;;;;;;;;5053646;28;20079;-61
2021/05/21 09:43:49;;;;;;;1.92;1.30;;;;;;;;;;5054995;28;20045;-61
2021/05/21 09:46:15;;;;;;;2.47;1.40;;;;;;;;;;5059234;28;20115;-60
2021/05/21 09:48:41;;;;;;;3.88;1.90;;;;;;;;;;5054036;28;20048;-61
2021/05/21 09:51:08;;;;;;;1.70;1.30;;;;;;;;;;5058187;28;20056;-61
2021/05/21 09:53:34;;;;;;;2.00;1.27;;;;;;;;;;5055666;28;20044;-61
2021/05/21 09:56:01;;;;;;;4.65;1.17;;;;;;;;;;5058890;28;20073;-60
2021/05/21 09:58:28;;;;;;;2.33;1.52;;;;;;;;;;5074960;28;20558;-61
2021/05/21 10:01:23;;;;;;;2.50;1.33;;;;;;;;;;5059273;28;20041;-61
2021/05/21 10:03:54;;;;;;;3.38;1.20;;;;;;;;;;5048643;28;20061;-61
2021/05/21 10:06:22;;;;;;;3.95;1.70;;;;;;;;;;5059412;28;20459;-62
2021/05/21 10:08:48;;;;;;;2.33;1.55;;;;;;;;;;5059429;28;20156;-61
2021/05/21 10:11:16;;;;;;;4.53;1.67;;;;;;;;;;5059185;28;20049;-62
2021/05/21 10:13:44;;;;;;;5.68;1.33;;;;;;;;;;5058435;28;20140;-62
2021/05/21 10:16:15;;;;;;;3.35;1.63;;;;;;;;;;5061677;28;20040;-61
2021/05/21 10:18:43;;;;;;;3.45;1.55;;;;;;;;;;5059147;28;20076;-62
2021/05/21 10:21:10;;;;;;;2.63;1.88;;;;;;;;;;5057078;28;20044;-62
2021/05/21 10:23:41;;;;;;;2.78;1.83;;;;;;;;;;5058173;28;20514;-61
2021/05/21 10:26:14;;;;;;;4.45;1.70;;;;;;;;;;5059080;28;20049;-61
2021/05/21 10:28:42;;;;;;;4.32;1.65;;;;;;;;;;5055811;28;20049;-62
2021/05/21 10:31:09;;;;;;;4.32;1.48;;;;;;;;;;5061400;28;20056;-62
2021/05/21 10:33:36;;;;;;;1.77;1.25;;;;;;;;;;5058780;28;20135;-61
2021/05/21 10:36:29;;;;;;;3.08;1.38;;;;;;;;;;5061121;28;20076;-62
2021/05/21 10:39:19;;;;;;;2.00;1.30;;;;;;;;;;5059578;28;20126;-62
2021/05/21 10:42:18;;;;;;;3.00;1.45;;;;;;;;;;5058333;28;20044;-61
2021/05/21 10:44:50;;;;;;;4.43;1.63;;;;;;;;;;5058631;28;20446;-62
2021/05/21 10:47:16;;;;;;;1.83;1.40;;;;;;;;;;5057015;28;20040;-62
2021/05/21 10:49:51;;;;;;;7.75;1.60;;;;;;;;;;5057591;28;20044;-62
2021/05/21 10:52:22;;;;;;;2.55;1.60;;;;;;;;;;5061689;28;20052;-62
2021/05/21 10:54:49;;;;;;;4.43;1.80;;;;;;;;;;5057808;28;20514;-62
2021/05/21 10:57:19;;;;;;;3.90;1.80;;;;;;;;;;5055890;28;20048;-62
2021/05/21 10:59:52;;;;;;;2.35;1.80;;;;;;;;;;5054479;28;20048;-62
2021/05/21 11:02:22;;;;;;;3.20;1.23;;;;;;;;;;5058611;28;20047;-62
2021/05/21 11:04:55;;;;;;;40.00;2.15;;;;;;;;;;5056573;28;20041;-61
2021/05/21 11:07:35;;;;;;;2.08;1.33;;;;;;;;;;5065218;28;20040;-61
2021/05/21 11:10:01;;;;;;;6.05;1.45;;;;;;;;;;5039002;28;20037;-61
2021/05/21 11:12:44;;;;;;;2.40;1.40;;;;;;;;;;5053353;28;20056;-61
2021/05/21 11:15:30;;;;;;;2.00;1.30;;;;;;;;;;5039907;28;20056;-62
2021/05/21 11:18:09;;;;;;;2.78;1.30;;;;;;;;;;5053688;28;20055;-62
2021/05/21 11:20:54;;;;;;;2.35;1.27;;;;;;;;;;5053001;28;20106;-62
2021/05/21 11:23:41;;;;;;;2.42;1.30;;;;;;;;;;5053263;28;20451;-62
2021/05/21 11:26:14;;;;;;;4.93;1.50;;;;;;;;;;5055110;28;20080;-61
2021/05/21 11:28:41;;;;;;;2.47;1.38;;;;;;;;;;5059987;28;20057;-62
2021/05/21 11:31:11;;;;;;;2.67;1.30;;;;;;;;;;5060529;28;20044;-62
2021/05/21 11:33:38;;;;;;;2.10;1.20;;;;;;;;;;5055343;28;20453;-62
2021/05/21 11:36:05;;;;;;;2.67;1.50;;;;;;;;;;5056757;28;20090;-62
2021/05/21 11:38:32;;;;;;;1.67;1.00;;;;;;;;;;5056962;28;20131;-62
2021/05/21 11:40:58;;;;;;;5.20;1.75;;;;;;;;;;5057279;28;20038;-61
2021/05/21 11:43:25;;;;;;;1.67;1.25;;;;;;;;;;5061987;28;20051;-62
2021/05/21 11:45:52;;;;;;;2.22;1.23;;;;;;;;;;5059417;28;20128;-62
2021/05/21 11:48:35;;;;;;;2.50;1.27;;;;;;;;;;5058359;28;20052;-61
2021/05/21 11:51:02;;;;;;;3.95;1.48;;;;;;;;;;5059764;28;20040;-61
2021/05/21 11:53:29;;;;;;;2.45;1.67;;;;;;;;;;5057214;28;20552;-62
2021/05/21 11:55:55;;;;;;;7.05;1.38;;;;;;;;;;5055938;28;20045;-62
2021/05/21 11:58:26;;;;;;;2.80;1.33;;;;;;;;;;5061258;28;20044;-61
2021/05/21 12:01:01;;;;;;;2.30;1.60;;;;;;;;;;5076987;28;20049;-61
2021/05/21 12:03:38;;;;;;;3.05;1.50;;;;;;;;;;5057307;28;20087;-61
2021/05/21 12:06:05;;;;;;;2.22;1.25;;;;;;;;;;5059928;28;20036;-62
2021/05/21 12:08:31;;;;;;;3.00;1.50;;;;;;;;;;5056715;28;20483;-61
2021/05/21 12:10:58;;;;;;;19.67;11.27;;;;;;;;;;5056838;28;20683;-61
2021/05/21 12:13:29;;;;;;;19.30;17.27;;;;;;;;;;5061349;28;20118;-61
2021/05/21 12:16:08;;;;;;;5.60;2.95;;;;;;;;;;5059551;28;20044;-63
2021/05/21 12:18:34;;;;;;;4.70;1.85;;;;;;;;;;5058078;28;20080;-62
2021/05/21 12:21:00;;;;;;;2.63;1.27;;;;;;;;;;5059506;28;20049;-62
2021/05/21 12:23:45;;;;;;;3.53;2.15;;;;;;;;;;5056393;28;20042;-60
2021/05/21 12:26:12;;;;;;;4.70;1.70;;;;;;;;;;5055594;28;20060;-62
2021/05/21 12:28:39;;;;;;;2.90;1.80;;;;;;;;;;5057733;28;20051;-61
2021/05/21 12:31:07;;;;;;;2.65;1.48;;;;;;;;;;5056267;28;20041;-61
2021/05/21 12:33:34;;;;;;;7.88;5.43;;;;;;;;;;5055958;28;20041;-61
2021/05/21 12:36:05;;;;;;;4.65;1.90;;;;;;;;;;5059195;28;20048;-61
2021/05/21 12:38:32;;;;;;;9.07;4.22;;;;;;;;;;5055872;28;20135;-61
2021/05/21 12:40:59;;;;;;;2.25;1.55;;;;;;;;;;5056238;28;20115;-61
2021/05/21 12:43:26;;;;;;;6.40;1.90;;;;;;;;;;5060930;28;20041;-61
2021/05/21 12:46:03;;;;;;;2.78;1.48;;;;;;;;;;5052012;28;20550;-62
2021/05/21 12:48:38;;;;;;;8.35;1.50;;;;;;;;;;5048698;28;20060;-61
2021/05/21 12:51:12;;;;;;;3.42;1.20;;;;;;;;;;5036792;28;20041;-62
2021/05/21 12:53:38;;;;;;;3.83;1.08;;;;;;;;;;5051728;28;20049;-62
2021/05/21 12:56:05;;;;;;;3.55;1.70;;;;;;;;;;5055644;28;20041;-62
2021/05/21 12:58:44;;;;;;;5.43;1.40;;;;;;;;;;5058574;28;20762;-61
2021/05/21 13:01:11;;;;;;;2.78;1.73;;;;;;;;;;5056267;28;20076;-61
2021/05/21 13:03:47;;;;;;;4.57;1.50;;;;;;;;;;5054694;28;20077;-61
2021/05/21 13:06:14;;;;;;;9.30;5.00;;;;;;;;;;5056208;28;20071;-61
2021/05/21 13:08:47;;;;;;;2.53;1.00;;;;;;;;;;5054833;28;20040;-61
2021/05/21 13:11:14;;;;;;;2.92;1.50;;;;;;;;;;5054619;28;20510;-60
2021/05/21 13:13:41;;;;;;;2.30;1.50;;;;;;;;;;5056013;28;20125;-60
2021/05/21 13:16:07;;;;;;;6.63;1.77;;;;;;;;;;5060144;28;20036;-61
2021/05/21 13:18:33;;;;;;;2.83;1.20;;;;;;;;;;5055434;28;20045;-60
2021/05/21 13:21:09;;;;;;;3.38;1.25;;;;;;;;;;5057577;28;20464;-60
2021/05/21 13:23:36;;;;;;;3.10;1.70;;;;;;;;;;5052862;28;20136;-60
2021/05/21 13:26:06;;;;;;;2.47;1.13;;;;;;;;;;5054708;28;20049;-61
2021/05/21 13:28:39;;;;;;;2.20;1.48;;;;;;;;;;5057740;28;20040;-62
2021/05/21 13:31:06;;;;;;;2.58;1.27;;;;;;;;;;5060491;28;20049;-60
2021/05/21 13:33:33;;;;;;;2.20;1.10;;;;;;;;;;5059449;28;20063;-59
2021/05/21 13:36:00;;;;;;;3.08;1.50;;;;;;;;;;5061373;28;20171;-58
2021/05/21 13:38:26;;;;;;;4.50;2.20;;;;;;;;;;5058444;28;20075;-59
2021/05/21 13:40:53;;;;;;;2.83;1.40;;;;;;;;;;5058485;28;20497;-58
2021/05/21 13:43:21;;;;;;;3.65;1.60;;;;;;;;;;5062847;28;20045;-59
2021/05/21 13:45:48;;;;;;;2.92;1.60;;;;;;;;;;5057345;28;20471;-58
2021/05/21 13:48:14;;;;;;;2.75;1.50;;;;;;;;;;5061011;28;20390;-59
2021/05/21 13:50:40;;;;;;;6.47;1.50;;;;;;;;;;5058335;28;20036;-59
2021/05/21 13:53:07;;;;;;;6.78;1.70;;;;;;;;;;5058391;28;20075;-59
2021/05/21 13:55:35;;;;;;;4.07;1.52;;;;;;;;;;5061496;28;20444;-59
2021/05/21 13:58:01;;;;;;;2.53;1.50;;;;;;;;;;5059382;28;20502;-60
2021/05/21 14:00:27;;;;;;;7.35;1.80;;;;;;;;;;5057836;28;20083;-60
2021/05/21 14:02:53;;;;;;;3.60;1.52;;;;;;;;;;5059807;28;20037;-59
2021/05/21 14:05:20;;;;;;;3.58;1.60;;;;;;;;;;5058982;28;20072;-59
2021/05/21 14:07:47;;;;;;;2.45;1.70;;;;;;;;;;5057838;28;20057;-60
2021/05/21 14:10:13;;;;;;;2.15;1.20;;;;;;;;;;5061597;28;20494;-60
2021/05/21 14:12:41;;;;;;;5.40;1.75;;;;;;;;;;5057486;28;20124;-60
2021/05/21 14:15:08;;;;;;;4.25;1.98;;;;;;;;;;5061054;28;20482;-59
2021/05/21 14:17:34;;;;;;;2.33;1.70;;;;;;;;;;5057682;28;20047;-59
2021/05/21 14:20:00;;;;;;;5.45;2.03;;;;;;;;;;5057039;28;20041;-59
2021/05/21 14:22:27;;;;;;;2.88;1.70;;;;;;;;;;5062676;28;20410;-59
2021/05/21 14:24:53;;;;;;;3.45;1.83;;;;;;;;;;5057513;28;20124;-59
2021/05/21 14:27:20;;;;;;;5.20;1.67;;;;;;;;;;5057729;28;21254;-59
2021/05/21 14:29:47;;;;;;;1.95;1.45;;;;;;;;;;5057243;28;20060;-59
2021/05/21 14:32:13;;;;;;;3.08;1.40;;;;;;;;;;5058040;28;20053;-59
2021/05/21 14:34:39;;;;;;;2.30;1.48;;;;;;;;;;5059376;28;20058;-59
2021/05/21 14:37:07;;;;;;;2.20;1.50;;;;;;;;;;5059009;28;20051;-58
2021/05/21 14:39:33;;;;;;;3.28;1.70;;;;;;;;;;5052915;28;20446;-59
2021/05/21 14:42:00;;;;;;;6.45;1.63;;;;;;;;;;5054947;28;20044;-59